createdAt,value
2023-02-18T00:00:40.320Z,17.40
2023-02-18T00:03:11.272Z,15.07
2023-02-18T00:05:40.464Z,19.17
2023-02-18T00:08:09.985Z,21.53
2023-02-18T00:10:39.201Z,19.73
2023-02-18T00:13:08.496Z,17.10
2023-02-18T00:15:37.731Z,17.70
2023-02-18T00:18:07.961Z,19.33
2023-02-18T00:20:40.848Z,23.43
2023-02-18T00:23:10.346Z,16.23
2023-02-18T00:25:39.653Z,18.53
2023-02-18T00:28:08.924Z,17.47
2023-02-18T00:30:42.044Z,19.67
2023-02-18T00:33:11.711Z,18.10
2023-02-18T00:35:42.913Z,19.80
2023-02-18T00:38:12.307Z,18.70
2023-02-18T00:40:42.077Z,22.10
2023-02-18T00:43:11.504Z,22.10
2023-02-18T00:45:41.743Z,19.50
2023-02-18T00:48:11.535Z,18.63
2023-02-18T00:50:42.202Z,19.80
2023-02-18T00:53:11.596Z,14.10
2023-02-18T00:55:41.740Z,18.30
2023-02-18T00:58:11.095Z,15.90
2023-02-18T01:00:40.301Z,20.10
2023-02-18T01:03:09.727Z,19.53
2023-02-18T01:05:39.471Z,18.00
2023-02-18T01:08:11.178Z,18.70
2023-02-18T01:10:43.233Z,17.10
2023-02-18T01:13:13.855Z,16.80
2023-02-18T01:15:43.629Z,17.40
2023-02-18T01:18:13.707Z,20.00
2023-02-18T01:20:44.143Z,17.47
2023-02-18T01:23:15.332Z,17.80
2023-02-18T01:25:44.795Z,17.43
2023-02-18T01:28:14.894Z,21.80
2023-02-18T01:30:44.652Z,20.13
2023-02-18T01:33:13.923Z,20.80
2023-02-18T01:35:43.286Z,21.37
2023-02-18T01:38:14.703Z,20.37
2023-02-18T01:40:48.958Z,25.40
2023-02-18T01:43:18.311Z,25.37
2023-02-18T01:45:53.209Z,24.37
2023-02-18T01:48:25.290Z,21.30
2023-02-18T01:50:56.793Z,19.80
2023-02-18T01:53:29.485Z,20.73
2023-02-18T01:55:59.080Z,23.97
2023-02-18T01:58:28.402Z,33.00
2023-02-18T02:00:57.845Z,26.03
2023-02-18T02:03:27.086Z,21.40
2023-02-18T02:05:57.749Z,25.60
2023-02-18T02:08:29.413Z,23.30
2023-02-18T02:11:07.573Z,25.40
2023-02-18T02:13:44.162Z,25.60
2023-02-18T02:16:15.049Z,27.47
2023-02-18T02:18:50.150Z,30.10
2023-02-18T02:21:37.266Z,28.30
2023-02-18T02:24:15.241Z,25.17
2023-02-18T02:27:06.941Z,29.70
2023-02-18T02:29:48.962Z,26.13
2023-02-18T02:32:33.023Z,29.03
2023-02-18T02:35:05.134Z,32.87
2023-02-18T02:37:37.516Z,25.07
2023-02-18T02:40:18.237Z,23.70
2023-02-18T02:42:53.168Z,27.53
2023-02-18T02:45:26.447Z,24.50
2023-02-18T02:47:58.921Z,22.17
2023-02-18T02:50:37.908Z,26.10
2023-02-18T02:53:08.944Z,29.30
2023-02-18T02:55:38.149Z,31.67
2023-02-18T02:58:07.376Z,30.80
2023-02-18T03:00:41.634Z,32.03
2023-02-18T03:03:30.552Z,25.37
2023-02-18T03:06:12.292Z,30.03
2023-02-18T03:08:48.582Z,25.77
2023-02-18T03:11:19.897Z,36.50
2023-02-18T03:13:55.524Z,32.67
2023-02-18T03:16:29.758Z,28.97
2023-02-18T03:19:01.758Z,27.70
2023-02-18T03:21:35.407Z,27.00
2023-02-18T03:24:08.153Z,26.70
2023-02-18T03:26:40.307Z,24.80
2023-02-18T03:29:10.992Z,24.47
2023-02-18T03:31:41.359Z,24.37
2023-02-18T03:34:13.483Z,23.90
2023-02-18T03:36:46.331Z,26.63
2023-02-18T03:39:17.407Z,29.20
2023-02-18T03:41:47.221Z,25.30
2023-02-18T03:44:16.411Z,26.67
2023-02-18T03:46:46.585Z,27.20
2023-02-18T03:49:16.898Z,23.67
2023-02-18T03:51:47.755Z,25.10
2023-02-18T03:54:16.885Z,24.83
2023-02-18T03:56:46.118Z,29.20
2023-02-18T03:59:15.384Z,28.90
2023-02-18T04:01:44.598Z,26.60
2023-02-18T04:04:14.206Z,32.57
2023-02-18T04:06:43.486Z,22.47
2023-02-18T04:09:14.119Z,26.70
2023-02-18T04:11:43.653Z,24.40
2023-02-18T04:14:15.308Z,26.50
2023-02-18T04:16:44.587Z,28.00
2023-02-18T04:19:13.913Z,25.63
2023-02-18T04:21:43.590Z,27.30
2023-02-18T04:24:14.189Z,28.63
2023-02-18T04:26:43.450Z,26.63
2023-02-18T04:29:12.847Z,23.13
2023-02-18T04:31:42.186Z,25.97
2023-02-18T04:34:11.442Z,30.20
2023-02-18T04:36:40.626Z,26.27
2023-02-18T04:39:09.937Z,26.93
2023-02-18T04:41:40.638Z,28.77
2023-02-18T04:44:10.189Z,24.97
2023-02-18T04:46:39.464Z,28.87
2023-02-18T04:49:08.683Z,31.33
2023-02-18T04:51:38.651Z,26.17
2023-02-18T04:54:07.890Z,30.60
2023-02-18T04:56:37.426Z,28.73
2023-02-18T04:59:07.998Z,29.40
2023-02-18T05:01:37.505Z,27.60
2023-02-18T05:04:06.948Z,26.57
2023-02-18T05:06:36.384Z,34.10
2023-02-18T05:09:05.703Z,34.43
2023-02-18T05:11:34.939Z,29.83
2023-02-18T05:14:04.328Z,27.53
2023-02-18T05:16:35.082Z,25.67
2023-02-18T05:19:04.558Z,31.23
2023-02-18T05:21:34.272Z,30.53
2023-02-18T05:24:03.776Z,30.87
2023-02-18T05:26:32.936Z,33.00
2023-02-18T05:29:02.160Z,28.87
2023-02-18T05:31:31.954Z,24.97
2023-02-18T05:34:02.714Z,27.87
2023-02-18T05:36:31.879Z,30.50
2023-02-18T05:39:01.064Z,29.33
2023-02-18T05:41:30.238Z,26.13
2023-02-18T05:44:16.833Z,29.73
2023-02-18T05:46:46.429Z,27.60
2023-02-18T05:49:17.070Z,28.30
2023-02-18T05:51:46.316Z,29.13
2023-02-18T05:54:15.978Z,32.53
2023-02-18T05:56:45.203Z,32.13
2023-02-18T05:59:14.368Z,38.83
2023-02-18T06:01:43.676Z,34.83
2023-02-18T06:04:12.849Z,34.90
2023-02-18T06:06:43.775Z,35.13
2023-02-18T06:09:13.074Z,35.03
2023-02-18T06:11:42.294Z,33.57
2023-02-18T06:14:11.659Z,37.50
2023-02-18T06:16:40.938Z,35.57
2023-02-18T06:19:10.150Z,35.50
2023-02-18T06:21:39.303Z,38.37
2023-02-18T06:24:10.378Z,33.80
2023-02-18T06:26:39.665Z,40.83
2023-02-18T06:29:08.789Z,43.13
2023-02-18T06:31:38.236Z,38.23
2023-02-18T06:34:07.509Z,37.40
2023-02-18T06:36:36.781Z,44.13
2023-02-18T06:39:06.801Z,31.33
2023-02-18T06:41:37.579Z,41.47
2023-02-18T06:44:06.940Z,33.33
2023-02-18T06:46:36.235Z,39.83
2023-02-18T06:49:06.154Z,39.03
2023-02-18T06:51:35.297Z,36.73
2023-02-18T06:54:06.144Z,31.73
2023-02-18T06:56:35.334Z,40.83
2023-02-18T06:59:06.201Z,46.10
2023-02-18T07:01:35.461Z,40.13
2023-02-18T07:04:04.709Z,38.03
2023-02-18T07:06:33.906Z,36.10
2023-02-18T07:09:03.147Z,33.10
2023-02-18T07:11:32.393Z,33.73
2023-02-18T07:14:01.595Z,42.67
2023-02-18T07:16:32.356Z,44.27
2023-02-18T07:19:01.684Z,42.60
2023-02-18T07:21:30.875Z,35.40
2023-02-18T07:24:00.221Z,38.67
2023-02-18T07:26:29.573Z,36.97
2023-02-18T07:28:58.774Z,41.27
2023-02-18T07:31:28.121Z,40.87
2023-02-18T07:33:58.968Z,41.43
2023-02-18T07:36:28.420Z,38.40
2023-02-18T07:38:57.572Z,42.87
2023-02-18T07:41:26.963Z,42.23
2023-02-18T07:43:56.173Z,40.87
2023-02-18T07:46:25.410Z,37.43
2023-02-18T07:48:54.607Z,39.70
2023-02-18T07:51:25.610Z,39.13
2023-02-18T07:53:54.960Z,44.23
2023-02-18T07:56:24.144Z,35.80
2023-02-18T07:58:53.484Z,41.37
2023-02-18T08:01:22.646Z,48.53
2023-02-18T08:03:51.823Z,43.50
2023-02-18T08:06:23.441Z,46.40
2023-02-18T08:08:54.065Z,43.30
2023-02-18T08:11:23.291Z,47.20
2023-02-18T08:13:52.688Z,41.93
2023-02-18T08:16:22.532Z,44.03
2023-02-18T08:18:52.351Z,40.60
2023-02-18T08:21:23.134Z,49.63
2023-02-18T08:23:53.998Z,42.13
2023-02-18T08:26:24.104Z,50.23
2023-02-18T08:28:53.384Z,51.60
2023-02-18T08:31:24.104Z,49.63
2023-02-18T08:33:54.159Z,49.53
2023-02-18T08:36:23.346Z,44.37
2023-02-18T08:38:54.207Z,42.50
2023-02-18T08:41:23.524Z,43.03
2023-02-18T08:43:52.697Z,46.07
2023-02-18T08:46:33.841Z,44.40
2023-02-18T08:49:05.616Z,46.00
2023-02-18T08:51:34.964Z,45.47
2023-02-18T08:54:06.716Z,44.30
2023-02-18T08:56:36.085Z,42.50
2023-02-18T08:59:05.629Z,64.37
2023-02-18T09:01:34.988Z,51.90
2023-02-18T09:04:04.346Z,47.60
2023-02-18T09:06:33.691Z,48.40
2023-02-18T09:09:03.038Z,59.73
2023-02-18T09:11:33.940Z,47.17
2023-02-18T09:14:03.158Z,44.13
2023-02-18T09:16:32.565Z,44.67
2023-02-18T09:19:01.771Z,50.70
2023-02-18T09:21:30.927Z,47.80
2023-02-18T09:24:00.699Z,50.77
2023-02-18T09:26:30.109Z,57.10
2023-02-18T09:29:00.804Z,49.67
2023-02-18T09:31:30.889Z,53.23
2023-02-18T09:34:01.714Z,47.90
2023-02-18T09:36:31.104Z,41.87
2023-02-18T09:39:00.968Z,50.10
2023-02-18T09:41:35.028Z,48.47
2023-02-18T09:44:07.664Z,48.40
2023-02-18T09:46:38.433Z,43.50
2023-02-18T09:49:09.544Z,50.73
2023-02-18T09:51:38.825Z,50.30
2023-02-18T09:54:08.058Z,45.13
2023-02-18T09:56:40.625Z,47.43
2023-02-18T09:59:14.818Z,47.33
2023-02-18T10:01:45.126Z,40.97
2023-02-18T10:04:18.599Z,43.30
2023-02-18T10:06:48.666Z,42.03
2023-02-18T10:09:21.442Z,50.27
2023-02-18T10:11:53.695Z,61.70
2023-02-18T10:14:24.591Z,50.57
2023-02-18T10:16:54.599Z,52.60
2023-02-18T10:19:26.579Z,51.27
2023-02-18T10:21:57.266Z,55.33
2023-02-18T10:24:29.778Z,55.97
2023-02-18T10:26:59.042Z,51.13
2023-02-18T10:29:32.441Z,54.00
2023-02-18T10:32:06.969Z,53.60
2023-02-18T10:34:42.810Z,59.70
2023-02-18T10:37:20.972Z,50.60
2023-02-18T10:40:01.796Z,54.83
2023-02-18T10:42:36.147Z,53.10
2023-02-18T10:45:15.737Z,55.00
2023-02-18T10:47:47.134Z,47.60
2023-02-18T10:50:20.937Z,52.97
2023-02-18T10:52:51.488Z,56.17
2023-02-18T10:55:22.253Z,44.20
2023-02-18T10:57:52.848Z,55.10
2023-02-18T11:00:26.686Z,53.73
2023-02-18T11:03:14.029Z,68.07
2023-02-18T11:05:43.618Z,53.53
2023-02-18T11:08:14.121Z,52.83
2023-02-18T11:10:45.736Z,60.20
2023-02-18T11:13:16.492Z,51.43
2023-02-18T11:15:57.932Z,59.20
2023-02-18T11:18:39.204Z,45.87
2023-02-18T11:21:21.638Z,46.27
2023-02-18T11:23:51.992Z,39.90
2023-02-18T11:26:24.328Z,41.27
2023-02-18T11:28:54.613Z,41.50
2023-02-18T11:31:26.738Z,47.40
2023-02-18T11:33:57.668Z,43.40
2023-02-18T11:36:28.291Z,45.17
2023-02-18T11:38:58.505Z,28.70
2023-02-18T11:41:35.530Z,31.77
2023-02-18T11:44:06.962Z,28.50
2023-02-18T11:46:37.932Z,26.90
2023-02-18T11:49:22.503Z,29.70
2023-02-18T11:51:53.181Z,29.57
2023-02-18T11:54:27.587Z,29.37
2023-02-18T11:56:57.745Z,36.23
2023-02-18T11:59:27.342Z,34.17
2023-02-18T12:02:02.483Z,39.67
2023-02-18T12:04:33.959Z,37.10
2023-02-18T12:07:09.046Z,40.73
2023-02-18T12:09:39.478Z,23.70
2023-02-18T12:12:14.091Z,28.37
2023-02-18T12:14:43.503Z,27.70
2023-02-18T12:17:22.183Z,24.60
2023-02-18T12:20:06.782Z,28.93
2023-02-18T12:22:43.932Z,34.47
2023-02-18T12:25:23.194Z,30.50
2023-02-18T12:27:56.406Z,37.27
2023-02-18T12:30:34.962Z,34.23
2023-02-18T12:33:08.436Z,36.13
2023-02-18T12:35:43.973Z,32.87
2023-02-18T12:38:28.431Z,33.70
2023-02-18T12:41:07.395Z,31.63
2023-02-18T12:43:42.202Z,30.10
2023-02-18T12:46:26.267Z,31.50
2023-02-18T12:49:03.446Z,32.00
2023-02-18T12:51:38.905Z,34.87
2023-02-18T12:54:23.020Z,32.03
2023-02-18T12:56:59.771Z,28.70
2023-02-18T12:59:50.727Z,31.93
2023-02-18T13:02:31.905Z,32.90
2023-02-18T13:05:08.871Z,31.87
2023-02-18T13:07:47.530Z,24.33
2023-02-18T13:10:25.738Z,26.30
2023-02-18T13:12:59.106Z,28.73
2023-02-18T13:15:33.427Z,29.53
2023-02-18T13:18:03.632Z,29.00
2023-02-18T13:20:37.313Z,30.30
2023-02-18T13:23:07.968Z,22.40
2023-02-18T13:25:39.740Z,20.93
2023-02-18T13:28:15.956Z,23.13
2023-02-18T13:30:47.437Z,22.80
2023-02-18T13:33:19.869Z,22.73
2023-02-18T13:35:53.928Z,22.67
2023-02-18T13:38:34.926Z,24.67
2023-02-18T13:41:04.746Z,29.63
2023-02-18T13:43:34.628Z,24.90
2023-02-18T13:46:10.644Z,20.23
2023-02-18T13:48:45.088Z,20.97
2023-02-18T13:51:16.737Z,16.57
2023-02-18T13:53:51.616Z,21.67
2023-02-18T13:56:23.116Z,19.00
2023-02-18T13:58:53.876Z,21.00
2023-02-18T14:01:47.721Z,20.13
2023-02-18T14:04:35.118Z,19.33
2023-02-18T14:07:27.504Z,23.07
2023-02-18T14:09:57.422Z,20.47
2023-02-18T14:12:28.055Z,20.53
2023-02-18T14:14:57.498Z,20.03
2023-02-18T14:17:32.410Z,15.37
2023-02-18T14:20:20.228Z,14.40
2023-02-18T14:22:52.108Z,21.17
2023-02-18T14:25:24.916Z,15.00
2023-02-18T14:27:55.092Z,11.67
2023-02-18T14:30:29.381Z,12.37
2023-02-18T14:32:59.751Z,17.63
2023-02-18T14:35:34.239Z,12.00
2023-02-18T14:38:22.384Z,12.37
2023-02-18T14:41:06.454Z,31.80
2023-02-18T14:43:41.845Z,9.67
2023-02-18T14:46:15.502Z,11.60
2023-02-18T14:48:53.384Z,9.03
2023-02-18T14:51:24.981Z,12.50
2023-02-18T14:53:54.743Z,10.63
2023-02-18T14:56:25.645Z,21.00
2023-02-18T14:58:59.064Z,10.00
2023-02-18T15:01:30.237Z,14.10
2023-02-18T15:03:59.731Z,16.20
2023-02-18T15:06:31.823Z,7.83
2023-02-18T15:09:01.401Z,8.13
2023-02-18T15:11:37.980Z,11.23
2023-02-18T15:14:12.382Z,10.20
2023-02-18T15:16:42.075Z,29.90
2023-02-18T15:19:15.366Z,7.83
2023-02-18T15:21:46.401Z,13.10
2023-02-18T15:24:22.414Z,10.67
2023-02-18T15:26:53.416Z,9.40
2023-02-18T15:29:24.081Z,9.90
2023-02-18T15:31:53.579Z,6.60
2023-02-18T15:34:35.406Z,8.40
2023-02-18T15:37:06.543Z,9.80
2023-02-18T15:39:38.788Z,8.80
2023-02-18T15:42:17.036Z,10.07
2023-02-18T15:44:48.654Z,15.23
2023-02-18T15:47:18.878Z,11.47
2023-02-18T15:49:48.788Z,10.07
2023-02-18T15:52:18.315Z,8.80
2023-02-18T15:54:47.627Z,8.70
2023-02-18T15:57:18.656Z,10.57
2023-02-18T15:59:49.024Z,11.60
2023-02-18T16:02:20.220Z,5.30
2023-02-18T16:04:53.418Z,6.90
2023-02-18T16:07:25.285Z,5.50
2023-02-18T16:10:09.752Z,8.43
2023-02-18T16:12:41.578Z,7.10
2023-02-18T16:15:14.065Z,9.53
2023-02-18T16:17:46.052Z,13.20
2023-02-18T16:20:20.775Z,10.47
2023-02-18T16:22:53.580Z,7.17
2023-02-18T16:25:25.351Z,8.13
2023-02-18T16:27:57.414Z,12.90
2023-02-18T16:30:27.528Z,10.30
2023-02-18T16:32:58.141Z,7.13
2023-02-18T16:35:30.710Z,10.53
2023-02-18T16:38:02.751Z,9.23
2023-02-18T16:40:33.184Z,10.27
2023-02-18T16:43:05.179Z,8.80
2023-02-18T16:45:35.723Z,11.57
2023-02-18T16:48:05.189Z,10.57
2023-02-18T16:50:35.349Z,10.40
2023-02-18T16:53:04.561Z,9.27
2023-02-18T16:55:34.563Z,11.87
2023-02-18T16:58:05.489Z,11.97
2023-02-18T17:00:35.128Z,13.07
2023-02-18T17:03:04.334Z,12.27
2023-02-18T17:05:36.774Z,12.60
2023-02-18T17:08:16.433Z,14.60
2023-02-18T17:10:45.730Z,9.10
2023-02-18T17:13:17.637Z,11.20
2023-02-18T17:15:47.983Z,12.00
2023-02-18T17:18:17.398Z,10.80
2023-02-18T17:20:48.590Z,12.90
2023-02-18T17:23:18.475Z,12.13
2023-02-18T17:25:48.546Z,14.80
2023-02-18T17:28:20.298Z,7.73
2023-02-18T17:30:51.602Z,12.30
2023-02-18T17:33:21.186Z,14.57
2023-02-18T17:35:50.574Z,16.70
2023-02-18T17:38:21.146Z,11.30
2023-02-18T17:40:50.846Z,12.53
2023-02-18T17:43:23.979Z,10.87
2023-02-18T17:45:54.217Z,11.43
2023-02-18T17:48:23.730Z,12.00
2023-02-18T17:50:53.354Z,7.57
2023-02-18T17:53:22.913Z,13.07
2023-02-18T17:55:52.538Z,9.03
2023-02-18T17:58:23.223Z,9.20
2023-02-18T18:00:53.655Z,9.23
2023-02-18T18:03:23.802Z,10.87
2023-02-18T18:05:54.674Z,14.77
2023-02-18T18:08:24.241Z,12.83
2023-02-18T18:10:54.916Z,9.63
2023-02-18T18:13:26.282Z,7.10
2023-02-18T18:15:57.927Z,8.33
2023-02-18T18:18:27.959Z,12.73
2023-02-18T18:20:59.135Z,13.87
2023-02-18T18:23:29.749Z,13.97
2023-02-18T18:25:59.788Z,17.17
2023-02-18T18:28:33.191Z,18.00
2023-02-18T18:31:03.646Z,14.80
2023-02-18T18:33:33.861Z,25.47
2023-02-18T18:36:03.526Z,20.90
2023-02-18T18:38:33.015Z,18.70
2023-02-18T18:41:02.332Z,19.97
2023-02-18T18:43:35.745Z,19.73
2023-02-18T18:46:05.320Z,0.77
2023-02-18T18:48:34.616Z,9.40
2023-02-18T18:51:03.952Z,0.80
2023-02-18T18:53:33.934Z,6.43
2023-02-18T18:56:04.496Z,19.70
2023-02-18T18:58:35.268Z,5.33
2023-02-18T19:01:05.618Z,0.80
2023-02-18T19:03:35.757Z,0.80
2023-02-18T19:06:05.170Z,0.80
2023-02-18T19:08:34.434Z,12.50
2023-02-18T19:11:04.337Z,27.17
2023-02-18T19:13:34.172Z,24.43
2023-02-18T19:16:06.031Z,19.83
2023-02-18T19:18:35.674Z,24.77
2023-02-18T19:21:05.485Z,22.60
2023-02-18T19:23:34.772Z,29.53
2023-02-18T19:26:04.274Z,22.47
2023-02-18T19:28:34.056Z,17.33
2023-02-18T19:31:05.490Z,17.67
2023-02-18T19:33:35.500Z,22.53
2023-02-18T19:36:07.986Z,27.80
2023-02-18T19:38:37.209Z,18.20
2023-02-18T19:41:10.470Z,14.87
2023-02-18T19:43:40.230Z,19.30
2023-02-18T19:46:11.954Z,19.63
2023-02-18T19:48:41.487Z,19.67
2023-02-18T19:51:11.395Z,16.50
2023-02-18T19:53:41.084Z,25.40
2023-02-18T19:56:10.446Z,23.93
2023-02-18T19:58:41.187Z,27.83
2023-02-18T20:01:14.933Z,26.33
2023-02-18T20:03:44.237Z,25.83
2023-02-18T20:06:17.262Z,21.10
2023-02-18T20:08:47.136Z,23.10
2023-02-18T20:11:16.768Z,26.63
2023-02-18T20:13:46.230Z,23.17
2023-02-18T20:16:17.241Z,29.47
2023-02-18T20:18:47.592Z,32.30
2023-02-18T20:21:17.194Z,33.10
2023-02-18T20:23:46.882Z,32.73
2023-02-18T20:26:16.589Z,30.00
2023-02-18T20:28:46.175Z,25.57
2023-02-18T20:31:17.453Z,29.00
2023-02-18T20:33:47.145Z,27.97
2023-02-18T20:36:16.929Z,34.10
2023-02-18T20:38:46.623Z,35.93
2023-02-18T20:41:18.044Z,30.87
2023-02-18T20:43:48.112Z,29.60
2023-02-18T20:46:20.918Z,23.90
2023-02-18T20:48:51.890Z,28.03
2023-02-18T20:51:22.342Z,26.30
2023-02-18T20:53:51.971Z,21.70
2023-02-18T20:56:22.115Z,20.67
2023-02-18T20:58:52.153Z,27.77
2023-02-18T21:01:23.533Z,22.80
2023-02-18T21:03:52.878Z,38.50
2023-02-18T21:06:22.717Z,33.17
2023-02-18T21:08:53.875Z,26.30
2023-02-18T21:11:24.219Z,22.20
2023-02-18T21:13:54.619Z,28.43
2023-02-18T21:16:25.938Z,26.17
2023-02-18T21:18:55.788Z,26.17
2023-02-18T21:21:25.212Z,31.53
2023-02-18T21:23:54.893Z,37.73
2023-02-18T21:26:24.964Z,29.70
2023-02-18T21:28:55.419Z,27.17
2023-02-18T21:31:26.959Z,35.33
2023-02-18T21:33:56.370Z,42.33
2023-02-18T21:36:25.819Z,26.30
2023-02-18T21:38:55.789Z,30.40
2023-02-18T21:41:25.304Z,26.40
2023-02-18T21:43:54.828Z,23.60
2023-02-18T21:46:24.712Z,25.73
2023-02-18T21:49:06.099Z,28.57
2023-02-18T21:51:54.418Z,27.40
2023-02-18T21:54:25.428Z,34.57
2023-02-18T21:56:54.992Z,36.33
2023-02-18T21:59:25.039Z,57.23
2023-02-18T22:01:54.457Z,34.67
2023-02-18T22:04:25.606Z,25.80
2023-02-18T22:06:54.973Z,21.57
2023-02-18T22:09:24.124Z,22.97
2023-02-18T22:11:53.596Z,32.43
2023-02-18T22:14:23.451Z,27.53
2023-02-18T22:16:52.686Z,34.37
2023-02-18T22:19:21.917Z,33.47
2023-02-18T22:21:52.640Z,33.90
2023-02-18T22:24:21.947Z,30.20
2023-02-18T22:26:51.339Z,27.03
2023-02-18T22:29:21.441Z,25.63
2023-02-18T22:31:53.555Z,34.40
2023-02-18T22:34:23.426Z,25.70
2023-02-18T22:36:53.961Z,31.40
2023-02-18T22:39:23.260Z,26.07
2023-02-18T22:41:52.501Z,23.70
2023-02-18T22:44:23.104Z,22.50
2023-02-18T22:46:52.556Z,28.27
2023-02-18T22:49:21.772Z,21.37
2023-02-18T22:51:53.215Z,21.50
2023-02-18T22:54:24.007Z,23.43
2023-02-18T22:56:53.358Z,25.77
2023-02-18T22:59:22.563Z,39.40
2023-02-18T23:01:53.250Z,31.47
2023-02-18T23:04:22.809Z,25.93
2023-02-18T23:06:52.245Z,22.27
2023-02-18T23:09:22.396Z,24.27
2023-02-18T23:11:53.707Z,23.63
2023-02-18T23:14:23.260Z,26.37
2023-02-18T23:17:10.540Z,20.07
2023-02-18T23:19:40.026Z,16.73
2023-02-18T23:22:09.696Z,21.30
2023-02-18T23:24:41.067Z,17.97
2023-02-18T23:27:12.838Z,17.20
2023-02-18T23:29:42.492Z,19.33
2023-02-18T23:32:12.261Z,13.87
2023-02-18T23:34:41.684Z,13.20
2023-02-18T23:37:11.790Z,18.30
2023-02-18T23:39:41.166Z,19.43
2023-02-18T23:42:13.494Z,19.50
2023-02-18T23:44:42.826Z,18.23
2023-02-18T23:47:11.933Z,17.60
2023-02-18T23:49:41.152Z,18.03
2023-02-18T23:52:10.429Z,13.80
2023-02-18T23:54:39.654Z,15.13
2023-02-18T23:57:08.883Z,17.73
2023-02-18T23:59:39.535Z,21.87
